Time;durP1;ratioP1;P1;durP2;ratioP2;P2;SDS_P1;SDS_P2;PMS_P1;PMS_P2;Temp;Humidity;BMP_temperature;BMP_pressure;BME280_temperature;BME280_humidity;BME280_pressure;Samples;Min_cycle;Max_cycle;Signal;HPM_P1;HPM_P2
2022/12/20 00:02:15;;;;;;;8.35;4.63;;;8.90;99.90;;;;;;5016973;28;20469;-48
2022/12/20 00:04:41;;;;;;;7.13;4.68;;;8.80;99.90;;;;;;4999002;28;20050;-48
2022/12/20 00:07:07;;;;;;;7.45;4.13;;;8.90;99.90;;;;;;5014796;28;20504;-49
2022/12/20 00:09:32;;;;;;;8.60;4.25;;;8.90;99.90;;;;;;5013439;28;20117;-50
2022/12/20 00:11:58;;;;;;;7.57;4.32;;;8.90;99.90;;;;;;5013772;28;20179;-48
2022/12/20 00:14:24;;;;;;;6.72;4.97;;;9.00;99.90;;;;;;5013825;28;20034;-49
2022/12/20 00:16:49;;;;;;;7.53;4.35;;;9.00;99.90;;;;;;5013704;28;20030;-48
2022/12/20 00:19:15;;;;;;;9.80;4.28;;;9.00;99.90;;;;;;5013726;28;20037;-48
2022/12/20 00:21:41;;;;;;;8.07;3.97;;;9.00;99.90;;;;;;4995691;28;20046;-52
2022/12/20 00:24:07;;;;;;;8.00;4.47;;;9.00;99.90;;;;;;5013502;28;20499;-53
2022/12/20 00:26:33;;;;;;;7.28;3.90;;;9.10;99.90;;;;;;5013363;28;20120;-51
2022/12/20 00:28:59;;;;;;;7.53;4.15;;;9.10;99.90;;;;;;4995101;28;20056;-51
2022/12/20 00:31:27;;;;;;;6.43;4.05;;;9.10;99.90;;;;;;5013201;28;20045;-51
2022/12/20 00:33:54;;;;;;;6.88;4.25;;;9.10;99.90;;;;;;5011429;28;20088;-51
2022/12/20 00:36:21;;;;;;;7.00;3.92;;;9.00;99.90;;;;;;5012584;28;20041;-52
2022/12/20 00:38:49;;;;;;;7.78;4.15;;;9.10;99.90;;;;;;5012862;28;20041;-51
2022/12/20 00:41:17;;;;;;;7.75;4.50;;;8.90;99.90;;;;;;5013031;28;20049;-50
2022/12/20 00:43:43;;;;;;;6.95;4.32;;;8.90;99.90;;;;;;5013314;28;20045;-52
2022/12/20 00:46:11;;;;;;;10.27;4.70;;;8.90;99.90;;;;;;5013026;28;21113;-48
2022/12/20 00:48:37;;;;;;;7.95;4.10;;;8.90;99.90;;;;;;5012535;28;20485;-47
2022/12/20 00:51:06;;;;;;;6.25;4.15;;;8.90;99.90;;;;;;5012834;28;20038;-50
2022/12/20 00:53:33;;;;;;;7.00;4.20;;;9.00;99.90;;;;;;5012876;28;20388;-51
2022/12/20 00:55:59;;;;;;;7.18;4.40;;;8.90;99.90;;;;;;5012754;28;20041;-51
2022/12/20 00:58:25;;;;;;;7.30;4.22;;;8.90;99.90;;;;;;5012967;28;20129;-50
2022/12/20 01:00:52;;;;;;;9.27;4.80;;;8.80;99.90;;;;;;5012197;28;20120;-50
2022/12/20 01:03:18;;;;;;;7.68;3.95;;;8.90;99.90;;;;;;5012545;28;20076;-49
2022/12/20 01:05:58;;;;;;;6.63;4.10;;;8.90;99.90;;;;;;5012951;28;20077;-51
2022/12/20 01:08:24;;;;;;;9.35;4.53;;;8.80;99.90;;;;;;5011858;28;20049;-48
2022/12/20 01:11:07;;;;;;;6.32;4.00;;;8.80;99.90;;;;;;5012312;28;20034;-48
2022/12/20 01:13:35;;;;;;;7.50;4.20;;;8.70;99.90;;;;;;5012822;28;20052;-51
2022/12/20 01:16:28;;;;;;;6.75;4.30;;;9.10;99.90;;;;;;5012523;28;20378;-47
2022/12/20 01:18:54;;;;;;;6.53;4.05;;;8.80;99.90;;;;;;5011533;28;20076;-49
2022/12/20 01:21:22;;;;;;;9.27;4.20;;;9.00;99.90;;;;;;4994501;28;20123;-52
2022/12/20 01:23:48;;;;;;;6.68;4.05;;;8.70;99.90;;;;;;5012511;28;20456;-49
2022/12/20 01:26:17;;;;;;;7.30;3.80;;;8.70;99.90;;;;;;5012456;28;20377;-50
2022/12/20 01:28:45;;;;;;;8.00;4.50;;;8.70;99.90;;;;;;5011735;28;20444;-51
2022/12/20 01:31:14;;;;;;;6.35;4.10;;;8.60;99.90;;;;;;5012402;28;20625;-50
2022/12/20 01:33:40;;;;;;;6.07;3.55;;;8.70;99.90;;;;;;5012315;28;20119;-50
2022/12/20 01:36:09;;;;;;;6.07;3.60;;;8.60;99.90;;;;;;5012357;28;20119;-50
2022/12/20 01:38:35;;;;;;;8.48;4.10;;;8.70;99.90;;;;;;5011829;28;20042;-47
2022/12/20 01:41:02;;;;;;;9.32;4.38;;;8.70;99.90;;;;;;5012385;28;20188;-50
2022/12/20 01:43:54;;;;;;;9.90;4.22;;;8.80;99.90;;;;;;5011907;28;20087;-49
2022/12/20 01:46:21;;;;;;;7.65;4.30;;;8.80;99.90;;;;;;5012212;28;20038;-51
2022/12/20 01:48:58;;;;;;;9.68;4.50;;;8.80;99.90;;;;;;5011870;28;20449;-47
2022/12/20 01:51:25;;;;;;;9.68;4.40;;;8.80;99.90;;;;;;5011797;28;20041;-48
2022/12/20 01:53:59;;;;;;;9.95;4.55;;;8.80;99.90;;;;;;5011611;28;20052;-49
2022/12/20 01:56:24;;;;;;;10.48;4.40;;;8.80;99.90;;;;;;5011820;28;20145;-48
2022/12/20 01:58:53;;;;;;;9.70;4.30;;;8.80;99.90;;;;;;5011545;28;20505;-51
2022/12/20 02:01:21;;;;;;;7.00;4.15;;;8.80;99.90;;;;;;5011718;28;20046;-47
2022/12/20 02:03:48;;;;;;;6.68;3.80;;;8.90;99.90;;;;;;5011824;28;20034;-49
2022/12/20 02:06:32;;;;;;;7.22;3.70;;;9.10;99.90;;;;;;5011726;28;20041;-53
2022/12/20 02:09:00;;;;;;;8.65;3.60;;;9.00;99.90;;;;;;5011891;28;20042;-51
2022/12/20 02:11:53;;;;;;;6.45;3.45;;;9.10;99.90;;;;;;5010135;28;20042;-49
2022/12/20 02:14:42;;;;;;;5.53;3.42;;;9.10;99.90;;;;;;5011273;28;20081;-47
2022/12/20 02:17:30;;;;;;;7.78;3.58;;;9.20;99.90;;;;;;4993881;28;20077;-53
2022/12/20 02:20:26;;;;;;;6.97;3.70;;;9.20;99.90;;;;;;5010746;28;20061;-53
2022/12/20 02:22:52;;;;;;;5.53;3.30;;;9.30;99.90;;;;;;4993529;28;20077;-50
2022/12/20 02:25:41;;;;;;;5.63;3.17;;;9.30;99.90;;;;;;5011654;28;20065;-48
2022/12/20 02:28:37;;;;;;;7.82;3.28;;;9.40;99.90;;;;;;5011064;28;20042;-52
2022/12/20 02:31:10;;;;;;;6.18;3.33;;;9.30;99.90;;;;;;5010688;28;20033;-47
2022/12/20 02:33:40;;;;;;;5.82;3.45;;;9.50;99.90;;;;;;5011263;28;20424;-48
2022/12/20 02:36:06;;;;;;;7.63;3.95;;;9.50;99.90;;;;;;5011156;28;20121;-47
2022/12/20 02:38:35;;;;;;;6.57;3.40;;;9.40;99.90;;;;;;5017366;28;20120;-48
2022/12/20 02:41:17;;;;;;;6.10;3.40;;;9.40;99.90;;;;;;4993824;28;20477;-47
2022/12/20 02:46:35;;;;;;;8.48;4.03;;;9.60;99.90;;;;;;5011390;28;20045;-48
2022/12/20 02:49:12;;;;;;;7.22;3.58;;;9.40;99.90;;;;;;5008617;28;20088;-48
2022/12/20 02:51:41;;;;;;;7.53;3.67;;;9.40;99.90;;;;;;4993204;28;20053;-49
2022/12/20 02:54:07;;;;;;;7.57;4.40;;;9.40;99.90;;;;;;5011279;28;20100;-48
2022/12/20 02:56:38;;;;;;;6.70;3.97;;;9.40;99.90;;;;;;5009993;28;20461;-47
2022/12/20 02:59:13;;;;;;;9.27;4.03;;;9.40;99.90;;;;;;4992847;28;20133;-48
2022/12/20 03:01:54;;;;;;;8.70;3.83;;;9.80;99.90;;;;;;5010836;28;20092;-48
2022/12/20 03:04:23;;;;;;;6.93;4.10;;;9.30;99.90;;;;;;4993509;28;20037;-47
2022/12/20 03:07:04;;;;;;;7.72;4.18;;;9.40;99.90;;;;;;5010790;28;20136;-47
2022/12/20 03:09:32;;;;;;;6.70;4.28;;;9.50;99.90;;;;;;5010841;28;20401;-48
2022/12/20 03:11:58;;;;;;;7.38;4.60;;;9.30;99.90;;;;;;5011079;28;20030;-48
2022/12/20 03:14:25;;;;;;;8.35;4.60;;;9.20;99.90;;;;;;5010543;28;20116;-48
2022/12/20 03:16:51;;;;;;;7.72;4.65;;;9.20;99.90;;;;;;4993360;28;20485;-48
2022/12/20 03:19:16;;;;;;;9.07;4.82;;;9.50;99.90;;;;;;5010537;28;20052;-46
2022/12/20 03:21:43;;;;;;;9.45;4.90;;;9.30;99.90;;;;;;5010519;28;20046;-50
2022/12/20 03:24:10;;;;;;;7.88;4.50;;;9.20;99.90;;;;;;5010689;28;20037;-49
2022/12/20 03:26:36;;;;;;;7.93;5.10;;;9.20;99.90;;;;;;4993411;28;20097;-47
2022/12/20 03:29:03;;;;;;;7.93;5.13;;;9.50;99.90;;;;;;5010435;28;20129;-47
2022/12/20 03:31:28;;;;;;;9.48;5.03;;;9.40;99.90;;;;;;5010840;28;20550;-48
2022/12/20 03:33:54;;;;;;;8.27;4.88;;;9.50;99.90;;;;;;5010893;28;20034;-48
2022/12/20 03:36:22;;;;;;;8.98;5.18;;;9.30;99.90;;;;;;5010657;28;20034;-49
2022/12/20 03:38:49;;;;;;;9.60;5.00;;;9.10;99.90;;;;;;5010785;28;20362;-47
2022/12/20 03:41:15;;;;;;;7.72;4.72;;;9.30;99.90;;;;;;5012090;28;20048;-48
2022/12/20 03:43:41;;;;;;;10.00;5.50;;;9.40;99.90;;;;;;4996477;28;20042;-49
2022/12/20 03:46:06;;;;;;;9.80;5.45;;;9.10;99.90;;;;;;5014451;28;20045;-46
2022/12/20 03:48:32;;;;;;;8.48;5.32;;;9.30;99.90;;;;;;4996363;28;20042;-47
2022/12/20 03:50:58;;;;;;;10.00;5.80;;;9.40;99.90;;;;;;5014218;28;20386;-47
2022/12/20 03:53:23;;;;;;;10.05;5.50;;;9.40;99.90;;;;;;5014294;28;20045;-47
2022/12/20 03:55:49;;;;;;;9.50;5.55;;;9.10;99.90;;;;;;5014329;28;20038;-48
2022/12/20 03:58:15;;;;;;;9.68;5.88;;;9.10;99.90;;;;;;5014037;28;20543;-47
2022/12/20 04:00:41;;;;;;;8.63;5.90;;;9.40;99.90;;;;;;5013479;28;20049;-46
2022/12/20 04:03:07;;;;;;;10.90;5.88;;;9.10;99.90;;;;;;5013829;28;20040;-48
2022/12/20 04:05:32;;;;;;;8.63;5.97;;;9.20;99.90;;;;;;5013975;28;20481;-47
2022/12/20 04:07:58;;;;;;;9.45;6.22;;;9.10;99.90;;;;;;5022506;28;20156;-48
2022/12/20 04:10:24;;;;;;;11.00;6.22;;;9.10;99.90;;;;;;5013926;28;20488;-49
2022/12/20 04:12:50;;;;;;;8.82;5.90;;;9.30;99.90;;;;;;5013733;28;20065;-47
2022/12/20 04:15:15;;;;;;;9.98;6.10;;;9.60;99.90;;;;;;5013883;28;20033;-48
2022/12/20 04:17:41;;;;;;;9.68;6.40;;;9.30;99.90;;;;;;5013837;28;20499;-47
2022/12/20 04:20:19;;;;;;;8.38;6.03;;;9.20;99.90;;;;;;5013396;28;20085;-47
2022/12/20 04:22:47;;;;;;;11.77;6.35;;;9.50;99.90;;;;;;4997807;28;20046;-48
2022/12/20 04:25:13;;;;;;;9.30;5.80;;;9.40;99.90;;;;;;5013700;28;20050;-46
2022/12/20 04:27:39;;;;;;;11.52;6.10;;;9.10;99.90;;;;;;5013157;28;20129;-47
2022/12/20 04:30:05;;;;;;;8.70;6.18;;;9.50;99.90;;;;;;5013017;28;20116;-49
2022/12/20 04:32:31;;;;;;;9.93;6.03;;;9.10;99.90;;;;;;5013509;28;20034;-47
2022/12/20 04:34:57;;;;;;;9.07;5.65;;;9.20;99.90;;;;;;5013181;28;20389;-47
2022/12/20 04:37:22;;;;;;;9.50;5.88;;;9.10;99.90;;;;;;5012080;28;20073;-46
2022/12/20 04:39:48;;;;;;;10.52;5.72;;;9.40;99.90;;;;;;5013237;28;20041;-48
2022/12/20 04:42:14;;;;;;;10.70;6.15;;;9.20;99.90;;;;;;5013147;28;20385;-47
2022/12/20 04:44:39;;;;;;;10.95;5.70;;;9.30;99.90;;;;;;5013265;28;20046;-47
2022/12/20 04:47:05;;;;;;;7.65;5.57;;;9.40;99.90;;;;;;5013117;28;20045;-48
2022/12/20 04:49:30;;;;;;;9.52;5.13;;;9.60;99.90;;;;;;5011749;28;20049;-47
2022/12/20 04:53:46;;;;;;;8.68;4.97;;;9.70;99.90;;;;;;5012185;28;20389;-47
2022/12/20 04:54:42;;;;;;;10.52;5.20;;;9.50;99.90;;;;;;5013000;28;20038;-48
2022/12/20 04:57:08;;;;;;;10.27;4.95;;;9.50;99.90;;;;;;5011691;28;20087;-46
2022/12/20 04:59:34;;;;;;;7.07;4.68;;;9.50;99.90;;;;;;5012179;28;20504;-48
2022/12/20 05:02:00;;;;;;;9.90;5.07;;;9.60;99.90;;;;;;5012456;28;20042;-47
2022/12/20 05:04:26;;;;;;;7.15;4.97;;;9.80;99.90;;;;;;5012433;28;20030;-46
2022/12/20 05:06:52;;;;;;;7.38;4.78;;;9.70;99.90;;;;;;5012794;28;20396;-47
2022/12/20 05:09:18;;;;;;;8.75;4.80;;;9.70;99.90;;;;;;5012738;28;20122;-47
2022/12/20 05:11:43;;;;;;;8.27;4.70;;;9.50;99.90;;;;;;5012717;28;20034;-46
2022/12/20 05:14:09;;;;;;;10.40;5.00;;;9.70;99.90;;;;;;5012723;28;20092;-47
2022/12/20 05:16:36;;;;;;;8.90;4.88;;;9.60;99.90;;;;;;5012455;28;20044;-49
2022/12/20 05:19:03;;;;;;;8.73;4.72;;;9.70;99.90;;;;;;4994912;28;20126;-48
2022/12/20 05:26:59;;;;;;;7.70;5.00;;;9.60;99.90;;;;;;5011452;28;20053;-48
2022/12/20 05:29:25;;;;;;;7.03;4.90;;;9.70;99.90;;;;;;5012089;28;20045;-49
2022/12/20 05:31:51;;;;;;;6.72;4.13;;;9.50;99.90;;;;;;4994617;28;20096;-48
2022/12/20 05:34:17;;;;;;;8.57;4.28;;;9.60;99.90;;;;;;5012352;28;20452;-48
2022/12/20 05:36:43;;;;;;;6.70;4.30;;;9.70;99.90;;;;;;5011959;28;20124;-48
2022/12/20 05:39:10;;;;;;;6.72;4.07;;;9.70;99.90;;;;;;5012333;28;20120;-48
2022/12/20 05:41:36;;;;;;;7.40;4.70;;;9.70;99.90;;;;;;5012103;28;20029;-48
2022/12/20 05:44:02;;;;;;;7.75;4.97;;;9.40;99.90;;;;;;5011036;28;20531;-48
2022/12/20 05:46:28;;;;;;;6.38;4.63;;;9.60;99.90;;;;;;5012050;28;20041;-47
2022/12/20 05:48:53;;;;;;;8.07;4.80;;;9.40;99.90;;;;;;5011743;28;20508;-48
2022/12/20 05:51:19;;;;;;;6.95;4.38;;;9.50;99.90;;;;;;5011817;28;20048;-49
2022/12/20 05:53:44;;;;;;;8.25;4.65;;;9.70;99.90;;;;;;5011959;28;20112;-47
2022/12/20 05:56:11;;;;;;;8.40;4.68;;;9.60;99.90;;;;;;5011863;28;20061;-46
2022/12/20 05:58:36;;;;;;;6.70;4.43;;;9.60;99.90;;;;;;5011907;28;20096;-47
2022/12/20 06:01:04;;;;;;;7.68;4.57;;;9.60;99.90;;;;;;5011522;28;20041;-49
2022/12/20 06:03:30;;;;;;;8.13;4.85;;;9.70;99.90;;;;;;5011733;28;20417;-48
2022/12/20 06:05:56;;;;;;;8.57;5.05;;;9.70;99.90;;;;;;5011949;28;20041;-47
2022/12/20 06:08:23;;;;;;;9.13;5.20;;;9.80;99.90;;;;;;5011580;28;20037;-47
2022/12/20 06:10:49;;;;;;;9.18;5.15;;;9.60;99.90;;;;;;5011845;28;20045;-47
2022/12/20 06:13:15;;;;;;;7.85;5.07;;;9.50;99.90;;;;;;5011374;28;20037;-47
2022/12/20 06:15:41;;;;;;;8.77;5.28;;;9.60;99.90;;;;;;5011351;28;20050;-49
2022/12/20 06:18:06;;;;;;;8.75;5.53;;;9.80;99.90;;;;;;5011188;28;20034;-49
2022/12/20 06:20:34;;;;;;;8.98;5.97;;;9.50;99.90;;;;;;5011072;28;20050;-46
2022/12/20 06:23:00;;;;;;;8.52;6.13;;;9.40;99.90;;;;;;4993943;28;20083;-47
2022/12/20 06:25:26;;;;;;;10.02;6.18;;;9.40;99.90;;;;;;5011634;28;20045;-48
2022/12/20 06:27:52;;;;;;;10.32;6.20;;;9.40;99.90;;;;;;5011498;28;20038;-47
2022/12/20 06:30:19;;;;;;;9.02;6.00;;;9.50;99.90;;;;;;5010863;28;20044;-49
2022/12/20 06:32:44;;;;;;;9.13;6.38;;;9.60;99.90;;;;;;4992921;28;20042;-47
2022/12/20 06:35:10;;;;;;;11.20;6.68;;;9.40;99.90;;;;;;5011136;28;20424;-48
2022/12/20 06:37:36;;;;;;;9.80;7.20;;;9.50;99.90;;;;;;5011210;28;20052;-47
2022/12/20 06:40:03;;;;;;;10.95;7.07;;;9.30;99.90;;;;;;5011448;28;20041;-48
2022/12/20 06:42:29;;;;;;;10.52;7.13;;;9.80;99.90;;;;;;5011416;28;20065;-47
2022/12/20 06:44:54;;;;;;;10.35;7.43;;;9.80;99.90;;;;;;5011057;28;20489;-47
2022/12/20 06:47:20;;;;;;;10.75;7.57;;;9.80;99.90;;;;;;5010770;28;20091;-48
2022/12/20 06:49:45;;;;;;;13.27;8.05;;;9.70;99.90;;;;;;5011072;28;20040;-48
2022/12/20 06:52:11;;;;;;;11.30;7.57;;;9.50;99.90;;;;;;5011507;28;20037;-47
2022/12/20 06:54:37;;;;;;;13.48;7.93;;;9.50;99.90;;;;;;5010851;28;20481;-46
2022/12/20 06:57:02;;;;;;;11.63;7.57;;;9.90;99.90;;;;;;5010973;28;20268;-47
2022/12/20 06:59:28;;;;;;;11.25;7.68;;;9.30;99.90;;;;;;5010252;28;20088;-49
2022/12/20 07:01:54;;;;;;;12.88;8.05;;;9.80;99.90;;;;;;4993658;28;20033;-49
2022/12/20 07:04:20;;;;;;;12.63;7.57;;;9.70;99.90;;;;;;5010776;28;20034;-48
2022/12/20 07:06:45;;;;;;;14.05;8.30;;;9.30;99.90;;;;;;5008229;28;20034;-48
2022/12/20 07:09:11;;;;;;;10.55;7.65;;;9.60;99.90;;;;;;5010853;28;20129;-47
2022/12/20 07:11:37;;;;;;;11.23;7.97;;;9.70;99.90;;;;;;4992896;28;20473;-48
2022/12/20 07:14:03;;;;;;;13.25;8.57;;;9.80;99.90;;;;;;5010636;28;20038;-49
2022/12/20 07:16:31;;;;;;;11.20;8.02;;;9.90;99.90;;;;;;5013015;28;20088;-46
2022/12/20 07:18:57;;;;;;;10.90;8.07;;;9.70;99.90;;;;;;5014818;28;20045;-47
2022/12/20 07:21:22;;;;;;;11.02;7.93;;;9.50;99.90;;;;;;5014598;28;20516;-47
2022/12/20 07:23:48;;;;;;;11.65;8.00;;;9.90;99.90;;;;;;5014526;28;20485;-49
2022/12/20 07:26:14;;;;;;;15.13;8.20;;;9.40;99.90;;;;;;5014914;28;20033;-47
2022/12/20 07:28:41;;;;;;;12.25;7.55;;;9.60;99.90;;;;;;5014289;28;20176;-47
2022/12/20 07:31:06;;;;;;;11.88;7.97;;;9.90;99.90;;;;;;5014278;28;20397;-47
2022/12/20 07:33:32;;;;;;;11.85;7.90;;;9.80;99.90;;;;;;5014574;28;20048;-48
2022/12/20 07:36:03;;;;;;;10.80;7.88;;;9.80;99.90;;;;;;5014515;28;20122;-47
2022/12/20 07:38:29;;;;;;;11.13;7.63;;;9.80;99.90;;;;;;5013088;28;20124;-46
2022/12/20 07:40:55;;;;;;;11.05;7.28;;;9.90;99.90;;;;;;4996578;28;20133;-48
2022/12/20 07:43:21;;;;;;;10.93;7.38;;;9.80;99.90;;;;;;5014330;28;20049;-46
2022/12/20 07:45:46;;;;;;;12.30;7.72;;;9.40;99.90;;;;;;4996863;28;20042;-52
2022/12/20 07:48:12;;;;;;;12.02;7.30;;;9.70;99.90;;;;;;5014255;28;20045;-49
2022/12/20 07:50:40;;;;;;;10.23;6.45;;;9.30;99.90;;;;;;5013845;28;20124;-47
2022/12/20 07:53:06;;;;;;;11.43;6.40;;;9.40;99.90;;;;;;5026186;28;20037;-49
2022/12/20 07:55:33;;;;;;;11.95;6.50;;;9.90;99.90;;;;;;4999703;28;20029;-49
2022/12/20 07:58:05;;;;;;;8.50;5.80;;;9.40;99.90;;;;;;5009068;28;20046;-47
2022/12/20 08:00:31;;;;;;;9.98;5.63;;;9.70;99.90;;;;;;5013531;28;20048;-48
2022/12/20 08:03:12;;;;;;;11.75;5.90;;;9.90;99.90;;;;;;5013970;28;20425;-46
2022/12/20 08:05:42;;;;;;;9.63;5.45;;;10.00;99.90;;;;;;4996068;28;20057;-47
2022/12/20 08:08:08;;;;;;;7.22;5.07;;;9.50;99.90;;;;;;5013848;28;20042;-47
2022/12/20 08:10:36;;;;;;;8.95;5.22;;;9.50;99.90;;;;;;4996381;28;20038;-47
2022/12/20 08:13:03;;;;;;;8.15;5.40;;;9.90;99.90;;;;;;5013952;28;20092;-47
2022/12/20 08:15:29;;;;;;;8.98;4.95;;;10.00;99.90;;;;;;4995837;28;20037;-47
2022/12/20 08:17:55;;;;;;;7.13;5.07;;;9.80;99.90;;;;;;5013727;28;20507;-47
2022/12/20 08:20:20;;;;;;;7.68;4.93;;;9.80;99.90;;;;;;5013619;28;20112;-50
2022/12/20 08:22:46;;;;;;;9.02;5.40;;;9.80;99.90;;;;;;5004121;28;20496;-47
2022/12/20 08:25:12;;;;;;;8.07;5.20;;;9.60;99.90;;;;;;4985800;28;20042;-47
2022/12/20 08:27:38;;;;;;;8.57;5.30;;;9.90;99.90;;;;;;5006543;28;20050;-47
2022/12/20 08:30:04;;;;;;;9.27;4.63;;;9.60;99.90;;;;;;5009194;28;20041;-46
2022/12/20 08:32:30;;;;;;;10.45;5.05;;;9.70;99.90;;;;;;5008689;28;20036;-49
2022/12/20 08:34:56;;;;;;;9.52;4.97;;;9.80;99.90;;;;;;5009161;28;20110;-47
2022/12/20 08:37:21;;;;;;;8.75;4.47;;;10.00;99.90;;;;;;5010061;28;20041;-47
2022/12/20 08:39:47;;;;;;;9.52;5.30;;;10.00;99.90;;;;;;5007923;28;20515;-47
2022/12/20 08:42:13;;;;;;;7.45;4.72;;;10.10;99.90;;;;;;5011615;28;20547;-48
2022/12/20 08:44:39;;;;;;;6.43;4.15;;;10.10;99.90;;;;;;5003538;28;20123;-47
2022/12/20 08:47:04;;;;;;;7.43;4.35;;;10.00;99.90;;;;;;4986457;28;20164;-49
2022/12/20 08:49:30;;;;;;;6.60;4.60;;;10.10;99.90;;;;;;5004288;28;20040;-48
2022/12/20 08:51:56;;;;;;;6.82;4.20;;;10.10;99.90;;;;;;5002874;28;20486;-47
2022/12/20 08:54:22;;;;;;;6.90;4.68;;;10.00;99.90;;;;;;5003140;28;20073;-47
2022/12/20 08:56:48;;;;;;;8.55;4.20;;;10.00;99.90;;;;;;5003661;28;20387;-47
2022/12/20 08:59:13;;;;;;;6.95;4.18;;;10.00;99.90;;;;;;5004310;28;20492;-47
2022/12/20 09:01:39;;;;;;;6.78;4.40;;;10.00;99.90;;;;;;5001291;28;20040;-47
2022/12/20 09:04:05;;;;;;;9.15;4.30;;;10.00;99.90;;;;;;5001039;28;20769;-49
2022/12/20 09:06:33;;;;;;;5.90;3.92;;;9.90;99.90;;;;;;5002742;28;20038;-47
2022/12/20 09:08:59;;;;;;;8.50;4.28;;;10.10;99.90;;;;;;5001220;28;20129;-48
2022/12/20 09:11:26;;;;;;;10.07;4.93;;;9.80;99.90;;;;;;5003713;28;20216;-47
2022/12/20 09:13:54;;;;;;;7.60;4.22;;;10.10;99.90;;;;;;5003376;28;20473;-47
2022/12/20 09:16:25;;;;;;;7.20;4.25;;;9.90;99.90;;;;;;5002789;28;20135;-46
2022/12/20 09:18:53;;;;;;;5.72;4.00;;;10.00;99.90;;;;;;5003730;28;20183;-48
2022/12/20 09:21:20;;;;;;;8.10;3.85;;;9.80;99.90;;;;;;4985499;28;20058;-48
2022/12/20 09:23:49;;;;;;;6.90;4.05;;;9.80;99.90;;;;;;4985342;28;20038;-47
2022/12/20 09:26:16;;;;;;;7.43;4.00;;;9.70;99.90;;;;;;5002407;28;20496;-49
2022/12/20 09:28:43;;;;;;;7.57;4.30;;;9.80;99.90;;;;;;5003654;28;21381;-47
2022/12/20 09:31:15;;;;;;;10.18;4.53;;;9.70;99.90;;;;;;5002792;28;20119;-47
2022/12/20 09:33:41;;;;;;;8.63;4.93;;;9.90;99.90;;;;;;5002014;28;20083;-47
2022/12/20 09:36:11;;;;;;;7.97;4.60;;;10.00;99.90;;;;;;5001830;28;20104;-47
2022/12/20 09:38:37;;;;;;;7.93;4.68;;;10.00;99.90;;;;;;5000349;28;20081;-49
2022/12/20 09:41:06;;;;;;;6.47;4.45;;;9.90;99.90;;;;;;4983311;28;20069;-47
2022/12/20 09:43:32;;;;;;;9.00;4.90;;;9.90;99.90;;;;;;5001519;28;20037;-47
2022/12/20 09:46:00;;;;;;;6.63;4.28;;;9.70;99.90;;;;;;5002542;28;20085;-47
2022/12/20 09:48:37;;;;;;;7.65;4.30;;;9.70;99.90;;;;;;5000865;28;20038;-47
2022/12/20 09:51:09;;;;;;;6.57;4.32;;;9.70;99.90;;;;;;5001636;28;20045;-50
2022/12/20 09:54:08;;;;;;;9.23;4.30;;;10.00;99.90;;;;;;5007440;28;20448;-46
2022/12/20 09:57:18;;;;;;;8.13;3.85;;;9.80;99.90;;;;;;5009871;28;20116;-47
2022/12/20 09:59:44;;;;;;;7.97;4.32;;;9.80;99.90;;;;;;4986652;28;20057;-48
2022/12/20 10:02:11;;;;;;;6.80;3.72;;;10.00;99.90;;;;;;5008037;28;20037;-45
2022/12/20 10:04:38;;;;;;;9.60;3.85;;;9.90;99.90;;;;;;5011764;28;20368;-46
2022/12/20 10:07:32;;;;;;;7.35;4.10;;;9.80;99.90;;;;;;5012004;28;20038;-48
2022/12/20 10:10:26;;;;;;;8.18;4.40;;;9.80;99.90;;;;;;5011466;28;20068;-47
2022/12/20 10:13:24;;;;;;;8.18;4.20;;;10.00;99.90;;;;;;5011770;28;20060;-47
2022/12/20 10:15:51;;;;;;;8.23;4.18;;;9.70;99.90;;;;;;5012119;28;20125;-47
2022/12/20 10:18:26;;;;;;;8.25;4.50;;;9.80;99.90;;;;;;5011595;28;20073;-47
2022/12/20 10:21:34;;;;;;;10.43;4.47;;;9.70;99.90;;;;;;5011296;28;20504;-47
2022/12/20 10:24:04;;;;;;;7.40;4.40;;;9.70;99.90;;;;;;5010436;28;20054;-47
2022/12/20 10:26:32;;;;;;;9.05;4.78;;;9.70;99.90;;;;;;5011230;28;20065;-48
2022/12/20 10:28:58;;;;;;;8.35;4.70;;;9.90;99.90;;;;;;5011184;28;20045;-49
2022/12/20 10:31:24;;;;;;;7.57;4.28;;;9.70;99.90;;;;;;4977136;28;20037;-49
2022/12/20 10:33:50;;;;;;;11.55;4.25;;;9.70;99.90;;;;;;5011262;28;20104;-49
2022/12/20 10:36:32;;;;;;;7.97;4.93;;;9.60;99.90;;;;;;5008749;28;20044;-48
2022/12/20 10:39:00;;;;;;;8.93;4.38;;;9.60;99.90;;;;;;5010354;28;20125;-49
2022/12/20 10:41:33;;;;;;;8.60;4.55;;;9.70;99.90;;;;;;5011510;28;20116;-49
2022/12/20 10:44:05;;;;;;;7.97;4.53;;;9.90;99.90;;;;;;5011353;28;20037;-47
2022/12/20 10:46:37;;;;;;;8.70;4.53;;;9.80;99.90;;;;;;5011133;28;20042;-50
2022/12/20 10:49:22;;;;;;;8.15;4.43;;;9.60;99.90;;;;;;5009998;28;20049;-47
2022/12/20 10:51:53;;;;;;;12.30;5.05;;;9.60;99.90;;;;;;5009631;28;20038;-48
2022/12/20 10:54:32;;;;;;;9.25;4.95;;;10.00;99.90;;;;;;5011095;28;20045;-47
2022/12/20 10:57:02;;;;;;;12.00;4.47;;;10.00;99.90;;;;;;5010867;28;20345;-49
2022/12/20 10:59:38;;;;;;;8.10;4.53;;;9.60;99.90;;;;;;5010576;28;20049;-48
2022/12/20 11:02:36;;;;;;;9.10;4.97;;;9.60;99.90;;;;;;5011115;28;20049;-47
2022/12/20 11:05:14;;;;;;;10.45;5.18;;;10.10;99.90;;;;;;5010962;28;20096;-49
2022/12/20 11:07:58;;;;;;;10.45;4.80;;;9.80;99.90;;;;;;5008952;28;20049;-49
2022/12/20 11:10:26;;;;;;;8.02;5.05;;;10.30;99.90;;;;;;5011180;28;20058;-50
2022/12/20 11:12:57;;;;;;;9.90;4.80;;;10.30;99.90;;;;;;4991978;28;20029;-49
2022/12/20 11:15:26;;;;;;;9.05;5.00;;;9.80;99.90;;;;;;4992370;28;20038;-47
2022/12/20 11:18:05;;;;;;;9.82;5.00;;;9.90;99.90;;;;;;5011134;28;20053;-48
2022/12/20 11:20:40;;;;;;;7.05;3.97;;;9.80;99.90;;;;;;5010300;28;20138;-52
2022/12/20 11:23:27;;;;;;;7.18;4.45;;;10.40;99.90;;;;;;4992970;28;20042;-48
2022/12/20 11:26:19;;;;;;;6.90;3.97;;;10.30;99.90;;;;;;4992951;28;20092;-48
2022/12/20 11:28:52;;;;;;;8.25;4.45;;;10.40;99.90;;;;;;5001291;28;20046;-47
2022/12/20 11:31:33;;;;;;;6.55;4.40;;;10.40;99.90;;;;;;5009118;28;20049;-49
2022/12/20 11:34:02;;;;;;;6.85;4.25;;;10.40;99.90;;;;;;5009972;28;20050;-50
2022/12/20 11:36:40;;;;;;;7.40;4.60;;;10.40;99.90;;;;;;5010558;28;20037;-51
2022/12/20 11:39:16;;;;;;;6.30;3.95;;;10.00;99.90;;;;;;5010882;28;20042;-48
2022/12/20 11:41:54;;;;;;;8.68;4.70;;;10.10;99.90;;;;;;5009997;28;20038;-51
2022/12/20 11:44:57;;;;;;;10.10;5.00;;;10.20;99.90;;;;;;5007069;28;20038;-50
2022/12/20 11:48:00;;;;;;;7.93;4.72;;;10.10;99.90;;;;;;5009892;28;20070;-52
2022/12/20 11:50:41;;;;;;;7.55;4.78;;;10.30;99.90;;;;;;4994251;28;20057;-54
2022/12/20 11:53:25;;;;;;;8.18;4.57;;;10.40;99.90;;;;;;5003681;28;20041;-49
2022/12/20 11:55:55;;;;;;;9.52;5.18;;;9.90;99.90;;;;;;5004177;28;20050;-52
2022/12/20 11:58:31;;;;;;;7.22;4.85;;;10.10;99.90;;;;;;5000044;28;20046;-49
2022/12/20 12:01:03;;;;;;;8.10;5.07;;;9.80;99.90;;;;;;5008714;28;20472;-51
2022/12/20 12:03:35;;;;;;;8.38;5.03;;;10.40;99.90;;;;;;5009693;28;20520;-49
2022/12/20 12:06:33;;;;;;;7.60;5.10;;;9.90;99.90;;;;;;5011903;28;20058;-49
2022/12/20 12:09:14;;;;;;;9.70;4.90;;;10.20;99.90;;;;;;5009903;28;20050;-52
2022/12/20 12:12:01;;;;;;;8.43;5.20;;;10.40;99.90;;;;;;5008604;28;20038;-50
2022/12/20 12:14:47;;;;;;;9.40;5.45;;;10.30;99.90;;;;;;5013279;28;20077;-50
2022/12/20 12:17:24;;;;;;;8.02;5.25;;;10.00;99.90;;;;;;5011762;28;20038;-50
2022/12/20 12:19:58;;;;;;;7.90;5.35;;;10.50;99.90;;;;;;5011768;28;20099;-49
2022/12/20 12:22:32;;;;;;;9.27;5.70;;;10.10;99.90;;;;;;5013878;28;20069;-49
2022/12/20 12:25:03;;;;;;;7.20;5.43;;;10.50;99.90;;;;;;5013818;28;20049;-48
2022/12/20 12:27:29;;;;;;;7.43;5.05;;;9.90;99.90;;;;;;5013479;28;20045;-49
2022/12/20 12:29:56;;;;;;;9.73;5.65;;;10.20;99.90;;;;;;5014605;28;20049;-50
2022/12/20 12:32:43;;;;;;;8.07;5.93;;;10.30;99.90;;;;;;5021694;28;20045;-52
2022/12/20 12:35:43;;;;;;;9.00;5.88;;;10.00;99.90;;;;;;5013611;28;20120;-51
2022/12/20 12:38:36;;;;;;;10.23;6.43;;;10.20;99.90;;;;;;4995854;28;20077;-51
2022/12/20 12:41:21;;;;;;;8.32;6.32;;;10.50;99.90;;;;;;5013173;28;20400;-49
2022/12/20 12:44:01;;;;;;;11.02;6.82;;;10.00;99.90;;;;;;5013519;28;20045;-49
2022/12/20 12:46:35;;;;;;;12.57;6.90;;;10.00;99.90;;;;;;4995593;28;20042;-51
2022/12/20 12:49:06;;;;;;;13.03;7.00;;;10.20;99.90;;;;;;5013127;28;20164;-50
2022/12/20 12:51:37;;;;;;;10.25;7.35;;;10.40;99.90;;;;;;5013188;28;20084;-51
2022/12/20 12:54:23;;;;;;;10.38;7.10;;;10.00;99.90;;;;;;5012780;28;20038;-54
2022/12/20 12:56:50;;;;;;;10.65;8.23;;;10.60;99.90;;;;;;5013380;28;20054;-53
2022/12/20 12:59:31;;;;;;;10.23;7.70;;;10.50;99.90;;;;;;5012214;28;20049;-51
2022/12/20 13:02:02;;;;;;;8.95;7.28;;;10.60;99.90;;;;;;5012697;28;20469;-53
2022/12/20 13:05:05;;;;;;;8.82;7.07;;;10.00;99.90;;;;;;5013044;28;20044;-50
2022/12/20 13:07:38;;;;;;;10.05;7.00;;;10.20;99.90;;;;;;5023151;28;20049;-51
2022/12/20 13:10:07;;;;;;;9.07;7.13;;;10.20;99.90;;;;;;5012851;28;20041;-49
2022/12/20 13:12:36;;;;;;;11.23;7.43;;;10.30;99.90;;;;;;5012892;28;20044;-51
2022/12/20 13:15:22;;;;;;;11.98;7.95;;;10.00;99.90;;;;;;4994191;28;20118;-52
2022/12/20 13:17:52;;;;;;;12.25;7.60;;;10.00;99.90;;;;;;5002009;28;20050;-53
2022/12/20 13:20:33;;;;;;;11.60;8.00;;;10.50;99.90;;;;;;5011513;28;20054;-51